LST weather

Launceston Airport
Launceston, Tasmania, Australia

Public forecast

Using degrees Celsius for public forecast. Weather courtesy of forecast.io.

Current aviation weather report (METAR) for Launceston Airport

Retrieved 2019/11/17 09:30 UTC (0 seconds ago):

YMLT 170930Z AUTO 27013KT 9999 // NCD 13/00 Q1014 RF000/0000

Aviation forecast (TAF) for Launceston Airport

Retrieved 2019/11/17 06:27 UTC (3 hours ago):

TAF YMLT 170541Z 1706/1806 30012KT CAVOK FM171400 33015G25KT 9999 SCT030 FM172000 32017G30KT 9999 BKN030 FM172200 32020G38KT 9999 BKN030